Time;durP1;ratioP1;P1;durP2;ratioP2;P2;SDS_P1;SDS_P2;PMS_P1;PMS_P2;Temp;Humidity;BMP_temperature;BMP_pressure;BME280_temperature;BME280_humidity;BME280_pressure;Samples;Min_cycle;Max_cycle;Signal;HPM_P1;HPM_P2
2021/10/27 00:00:54;;;;;;;20.02;12.05;;;;;;;4.54;100.00;100410.53;2577752;55;20662;-72
2021/10/27 00:03:22;;;;;;;23.80;12.37;;;;;;;4.53;100.00;100408.81;2577613;55;20169;-72
2021/10/27 00:05:50;;;;;;;17.17;10.98;;;;;;;4.56;100.00;100402.50;2577788;55;20495;-69
2021/10/27 00:08:17;;;;;;;19.00;12.20;;;;;;;4.56;100.00;100405.12;2577867;55;20117;-72
2021/10/27 00:10:45;;;;;;;22.00;12.98;;;;;;;4.56;100.00;100397.22;2578209;55;20127;-69
2021/10/27 00:13:15;;;;;;;20.75;14.35;;;;;;;4.57;100.00;100391.03;2578132;55;20130;-73
2021/10/27 00:15:43;;;;;;;20.85;12.73;;;;;;;4.56;100.00;100387.50;2578132;55;20123;-71
2021/10/27 00:18:12;;;;;;;19.83;11.75;;;;;;;4.56;100.00;100378.72;2577906;55;20515;-68
2021/10/27 00:20:39;;;;;;;19.77;12.57;;;;;;;4.57;100.00;100381.28;2578177;55;20113;-69
2021/10/27 00:23:07;;;;;;;22.60;13.25;;;;;;;4.56;100.00;100371.66;2573057;55;20120;-72
2021/10/27 00:25:35;;;;;;;18.25;12.30;;;;;;;4.58;100.00;100379.50;2578143;55;20114;-69
2021/10/27 00:28:03;;;;;;;20.40;12.27;;;;;;;4.57;100.00;100377.81;2578166;55;20139;-72
2021/10/27 00:30:32;;;;;;;21.85;13.25;;;;;;;4.51;100.00;100357.88;2578183;55;20110;-69
2021/10/27 00:33:00;;;;;;;18.33;12.43;;;;;;;4.48;100.00;100358.00;2578796;55;20121;-71
2021/10/27 00:35:28;;;;;;;23.70;13.70;;;;;;;4.56;100.00;100369.00;2579161;55;20531;-72
2021/10/27 00:37:56;;;;;;;20.33;12.60;;;;;;;4.47;100.00;100348.38;2578989;55;20115;-68
2021/10/27 00:40:24;;;;;;;20.55;12.95;;;;;;;4.60;100.00;100362.59;2578928;55;20118;-71
2021/10/27 00:42:51;;;;;;;20.70;13.85;;;;;;;4.60;100.00;100365.25;2578888;55;20614;-72
2021/10/27 00:45:19;;;;;;;20.02;12.70;;;;;;;4.60;100.00;100356.50;2578929;55;20109;-69
2021/10/27 00:47:48;;;;;;;18.35;12.60;;;;;;;4.64;100.00;100354.53;2578869;55;20105;-72
2021/10/27 00:50:17;;;;;;;20.05;13.05;;;;;;;4.65;100.00;100361.50;2578949;55;20109;-69
2021/10/27 00:52:53;;;;;;;19.98;13.40;;;;;;;4.68;100.00;100358.69;2578869;55;20112;-69
2021/10/27 00:55:21;;;;;;;21.27;12.80;;;;;;;4.67;100.00;100351.72;2578710;55;20108;-71
2021/10/27 00:57:49;;;;;;;18.90;11.82;;;;;;;4.67;100.00;100346.41;2578849;55;20117;-69
2021/10/27 01:00:17;;;;;;;23.30;12.77;;;;;;;4.64;100.00;100339.50;2578834;55;20535;-72
2021/10/27 01:02:46;;;;;;;20.75;12.73;;;;;;;4.62;100.00;100330.00;2578940;55;20113;-72
2021/10/27 01:05:16;;;;;;;22.92;14.00;;;;;;;4.70;100.00;100341.81;2578583;55;20109;-72
2021/10/27 01:07:44;;;;;;;19.87;12.23;;;;;;;4.70;100.00;100330.38;2578658;55;20121;-68
2021/10/27 01:10:13;;;;;;;22.40;13.90;;;;;;;4.69;100.00;100326.03;2578719;55;20143;-68
2021/10/27 01:12:40;;;;;;;22.05;12.50;;;;;;;4.67;100.00;100323.50;2578380;55;20121;-69
2021/10/27 01:15:09;;;;;;;22.65;13.02;;;;;;;4.64;100.00;100320.19;2578710;55;20164;-72
2021/10/27 01:17:37;;;;;;;25.48;14.32;;;;;;;4.64;100.00;100309.59;2578742;55;20110;-69
2021/10/27 01:20:08;;;;;;;28.38;13.70;;;;;;;4.70;100.00;100322.44;2578668;55;20117;-69
2021/10/27 01:22:38;;;;;;;22.67;13.13;;;;;;;4.68;100.00;100321.69;2573594;55;20530;-72
2021/10/27 01:25:10;;;;;;;22.27;13.27;;;;;;;4.68;100.00;100317.28;2578546;55;20125;-69
2021/10/27 01:27:43;;;;;;;24.70;14.93;;;;;;;4.70;100.00;100311.87;2578645;55;20114;-72
2021/10/27 01:30:13;;;;;;;24.52;14.15;;;;;;;4.68;100.00;100312.00;2578660;55;20157;-72
2021/10/27 01:32:42;;;;;;;26.02;15.25;;;;;;;4.69;100.00;100312.81;2578669;55;20122;-72
2021/10/27 01:35:12;;;;;;;28.00;14.55;;;;;;;4.69;100.00;100304.91;2578563;55;20113;-72
2021/10/27 01:37:41;;;;;;;25.70;13.77;;;;;;;4.71;100.00;100305.66;2578581;55;20123;-72
2021/10/27 01:40:11;;;;;;;25.48;14.85;;;;;;;4.72;100.00;100308.22;2578929;55;20624;-72
2021/10/27 01:42:39;;;;;;;28.20;15.27;;;;;;;4.75;100.00;100301.91;2573354;55;20140;-69
2021/10/27 01:45:09;;;;;;;30.75;16.95;;;;;;;4.75;100.00;100293.97;2578884;55;20120;-73
2021/10/27 01:47:41;;;;;;;27.70;16.25;;;;;;;4.73;100.00;100283.47;2578608;55;20483;-69
2021/10/27 01:50:11;;;;;;;26.25;16.55;;;;;;;4.74;100.00;100290.47;2578523;55;20114;-72
2021/10/27 01:52:39;;;;;;;27.70;15.57;;;;;;;4.65;100.00;100282.22;2578661;55;20538;-69
2021/10/27 01:55:08;;;;;;;25.90;15.07;;;;;;;4.76;100.00;100290.41;2578599;55;20114;-68
2021/10/27 01:57:36;;;;;;;29.35;17.15;;;;;;;4.79;100.00;100286.72;2578646;55;20140;-72
2021/10/27 02:00:06;;;;;;;31.08;16.15;;;;;;;4.78;100.00;100287.69;2578569;55;20129;-72
2021/10/27 02:02:39;;;;;;;30.33;14.87;;;;;;;4.76;100.00;100282.47;2578558;55;20136;-69
2021/10/27 02:05:08;;;;;;;30.23;17.55;;;;;;;4.78;100.00;100285.88;2578690;55;20128;-73
2021/10/27 02:07:37;;;;;;;31.87;16.30;;;;;;;4.80;100.00;100275.22;2578406;55;20127;-72
2021/10/27 02:10:08;;;;;;;32.35;15.68;;;;;;;4.80;100.00;100269.94;2578334;55;20118;-72
2021/10/27 02:12:37;;;;;;;32.77;20.93;;;;;;;4.81;100.00;100276.91;2578505;55;20508;-69
2021/10/27 02:15:05;;;;;;;31.77;16.00;;;;;;;4.69;100.00;100250.25;2573326;55;20818;-72
2021/10/27 02:17:33;;;;;;;27.75;14.85;;;;;;;4.83;100.00;100261.81;2578570;55;20128;-73
2021/10/27 02:20:01;;;;;;;33.85;21.05;;;;;;;4.83;100.00;100264.44;2578501;55;20117;-69
2021/10/27 02:22:29;;;;;;;31.00;17.80;;;;;;;4.81;100.00;100259.28;2573333;55;20124;-69
2021/10/27 02:24:58;;;;;;;32.50;18.30;;;;;;;4.85;100.00;100274.00;2578284;55;20116;-72
2021/10/27 02:27:25;;;;;;;29.90;15.85;;;;;;;4.82;100.00;100266.25;2578479;55;20627;-73
2021/10/27 02:29:53;;;;;;;30.25;17.05;;;;;;;4.85;100.00;100265.22;2578325;55;20124;-72
2021/10/27 02:32:21;;;;;;;30.62;16.37;;;;;;;4.86;100.00;100262.47;2578482;55;20131;-72
2021/10/27 02:34:49;;;;;;;29.17;16.10;;;;;;;4.88;100.00;100255.31;2578361;55;20121;-70
2021/10/27 02:37:17;;;;;;;25.50;14.52;;;;;;;4.86;100.00;100259.84;2573373;55;20552;-69
2021/10/27 02:39:45;;;;;;;27.65;14.48;;;;;;;4.84;100.00;100248.50;2578389;55;20109;-72
2021/10/27 02:42:14;;;;;;;27.40;15.70;;;;;;;4.87;100.00;100258.06;2578754;55;20140;-68
2021/10/27 02:44:41;;;;;;;25.05;14.07;;;;;;;4.88;100.00;100250.03;2578219;55;20120;-72
2021/10/27 02:47:09;;;;;;;25.92;15.35;;;;;;;4.87;100.00;100240.41;2578248;55;20117;-71
2021/10/27 02:49:37;;;;;;;23.67;13.98;;;;;;;4.87;100.00;100242.19;2578255;55;20125;-72
2021/10/27 02:52:06;;;;;;;26.35;14.45;;;;;;;4.92;100.00;100247.22;2578335;55;20124;-68
2021/10/27 02:54:34;;;;;;;22.23;13.15;;;;;;;4.93;100.00;100241.00;2578232;55;20116;-72
2021/10/27 02:57:02;;;;;;;26.80;13.68;;;;;;;4.93;100.00;100241.00;2578549;55;20492;-72
2021/10/27 02:59:32;;;;;;;23.50;13.07;;;;;;;4.93;100.00;100244.47;2578434;55;20104;-71
2021/10/27 03:02:00;;;;;;;50.25;27.85;;;;;;;4.94;100.00;100238.22;2578146;55;20123;-72
2021/10/27 03:04:28;;;;;;;20.62;13.68;;;;;;;4.98;100.00;100242.41;2578342;55;20109;-72
2021/10/27 03:06:56;;;;;;;21.35;14.00;;;;;;;5.01;100.00;100241.34;2578228;55;20114;-72
2021/10/27 03:09:24;;;;;;;23.52;13.25;;;;;;;5.00;100.00;100234.38;2578421;55;20122;-68
2021/10/27 03:11:53;;;;;;;22.25;13.18;;;;;;;5.01;100.00;100222.84;2578406;55;20129;-69
2021/10/27 03:14:20;;;;;;;20.70;12.52;;;;;;;5.05;100.00;100234.97;2578288;55;20132;-72
2021/10/27 03:16:49;;;;;;;18.02;11.93;;;;;;;5.05;100.00;100229.66;2578162;55;20128;-72
2021/10/27 03:19:17;;;;;;;18.20;10.63;;;;;;;5.09;100.00;100230.34;2578422;55;20127;-68
2021/10/27 03:21:45;;;;;;;17.73;10.57;;;;;;;5.05;100.00;100218.22;2578323;55;20534;-73
2021/10/27 03:24:13;;;;;;;16.62;9.00;;;;;;;5.09;100.00;100228.53;2578423;55;20780;-69
2021/10/27 03:26:41;;;;;;;15.27;9.27;;;;;;;5.05;100.00;100221.75;2578566;55;20159;-69
2021/10/27 03:29:08;;;;;;;14.60;8.82;;;;;;;5.07;100.00;100222.50;2578428;55;20121;-72
2021/10/27 03:31:36;;;;;;;13.32;8.65;;;;;;;5.12;100.00;100224.88;2578191;55;20141;-72
2021/10/27 03:34:06;;;;;;;17.35;9.48;;;;;;;5.04;100.00;100204.19;2578126;55;20117;-69
2021/10/27 03:36:33;;;;;;;13.10;8.52;;;;;;;5.15;100.00;100217.59;2578384;55;20125;-73
2021/10/27 03:39:01;;;;;;;11.80;7.90;;;;;;;5.15;100.00;100225.53;2578289;55;20470;-69
2021/10/27 03:41:30;;;;;;;12.77;7.93;;;;;;;5.17;100.00;100227.22;2573405;55;20129;-73
2021/10/27 03:43:57;;;;;;;10.98;8.00;;;;;;;5.17;100.00;100219.28;2578132;55;20619;-69
2021/10/27 03:46:25;;;;;;;27.58;16.50;;;;;;;5.18;100.00;100216.56;2573000;55;20105;-69
2021/10/27 03:48:53;;;;;;;28.50;15.68;;;;;;;5.18;100.00;100213.06;2577924;55;20127;-73
2021/10/27 03:51:22;;;;;;;11.75;8.13;;;;;;;5.23;100.00;100217.13;2578358;55;20128;-69
2021/10/27 03:53:50;;;;;;;9.68;6.90;;;;;;;5.19;100.00;100212.12;2577919;55;20730;-73
2021/10/27 03:56:18;;;;;;;12.10;7.30;;;;;;;5.14;100.00;100207.97;2578092;55;20101;-69
2021/10/27 03:58:46;;;;;;;11.15;8.27;;;;;;;5.13;100.00;100206.28;2578029;55;20126;-69
2021/10/27 04:01:15;;;;;;;10.45;7.37;;;;;;;5.17;100.00;100206.06;2578281;55;20102;-74
2021/10/27 04:03:43;;;;;;;10.70;6.72;;;;;;;5.22;100.00;100210.13;2578097;55;20139;-73
2021/10/27 04:06:11;;;;;;;11.10;7.57;;;;;;;5.24;100.00;100207.41;2577907;55;20160;-73
2021/10/27 04:08:40;;;;;;;12.23;6.93;;;;;;;5.25;100.00;100209.94;2578044;55;20119;-73
2021/10/27 04:11:08;;;;;;;9.10;6.72;;;;;;;5.28;100.00;100209.78;2578172;55;20601;-73
2021/10/27 04:13:36;;;;;;;10.50;6.93;;;;;;;5.30;100.00;100207.00;2578059;55;20236;-69
2021/10/27 04:16:04;;;;;;;12.43;7.93;;;;;;;5.31;100.00;100203.44;2578061;55;20670;-70
2021/10/27 04:18:32;;;;;;;8.80;6.47;;;;;;;5.32;100.00;100212.22;2578069;55;20121;-70
2021/10/27 04:20:59;;;;;;;10.82;6.82;;;;;;;5.35;100.00;100207.59;2577722;55;20115;-73
2021/10/27 04:23:27;;;;;;;9.52;6.20;;;;;;;5.39;100.00;100205.63;2578036;55;20132;-69
2021/10/27 04:25:56;;;;;;;9.23;6.35;;;;;;;5.44;100.00;100214.09;2576283;55;20491;-74
2021/10/27 04:28:24;;;;;;;10.18;6.18;;;;;;;5.32;100.00;100186.63;2574945;55;20157;-69
2021/10/27 04:30:52;;;;;;;9.35;6.35;;;;;;;5.43;100.00;100205.34;2574928;55;20107;-69
2021/10/27 04:33:22;;;;;;;8.10;5.60;;;;;;;5.50;100.00;100204.94;2574530;55;20113;-74
2021/10/27 04:35:52;;;;;;;7.62;5.28;;;;;;;5.47;100.00;100199.84;2574521;55;20630;-74
2021/10/27 04:38:21;;;;;;;8.75;5.43;;;;;;;5.50;100.00;100194.34;2574401;55;20123;-71
2021/10/27 04:40:49;;;;;;;7.40;5.30;;;;;;;5.52;100.00;100203.91;2572260;55;20124;-74
2021/10/27 04:43:18;;;;;;;6.20;4.50;;;;;;;5.57;100.00;100203.63;2572113;55;20109;-75
2021/10/27 04:45:46;;;;;;;5.72;4.40;;;;;;;5.59;100.00;100207.00;2572138;55;20106;-71
2021/10/27 04:48:15;;;;;;;6.25;4.30;;;;;;;5.60;100.00;100198.12;2572212;55;20135;-70
2021/10/27 04:50:43;;;;;;;8.00;5.45;;;;;;;5.60;100.00;100192.81;2571980;55;20128;-74
2021/10/27 04:53:17;;;;;;;6.32;4.85;;;;;;;5.66;100.00;100194.25;2574523;55;20669;-69
2021/10/27 04:55:47;;;;;;;7.82;5.55;;;;;;;5.67;100.00;100188.84;2570150;55;20135;-69
2021/10/27 04:58:15;;;;;;;7.90;5.60;;;;;;;5.68;100.00;100190.56;2572485;55;20113;-73
2021/10/27 05:00:45;;;;;;;7.37;4.87;;;;;;;5.63;100.00;100190.00;2572963;55;20125;-69
2021/10/27 05:03:12;;;;;;;7.35;4.97;;;;;;;5.71;100.00;100198.31;2572784;55;20635;-74
2021/10/27 05:05:46;;;;;;;9.18;5.47;;;;;;;5.74;100.00;100207.84;2572909;55;20120;-70
2021/10/27 05:08:15;;;;;;;6.53;4.87;;;;;;;5.78;100.00;100208.50;2572704;55;20586;-75
2021/10/27 05:10:43;;;;;;;8.32;5.12;;;;;;;5.80;100.00;100209.25;2573133;55;20617;-73
2021/10/27 05:13:11;;;;;;;9.52;4.93;;;;;;;5.78;100.00;100203.22;2572922;55;20124;-69
2021/10/27 05:15:39;;;;;;;7.20;4.37;;;;;;;5.88;100.00;100209.63;2572839;55;20110;-70
2021/10/27 05:18:09;;;;;;;7.12;4.03;;;;;;;5.94;100.00;100201.28;2575344;55;20206;-73
2021/10/27 05:20:36;;;;;;;7.32;4.40;;;;;;;5.94;100.00;100203.94;2570332;55;20616;-70
2021/10/27 05:23:04;;;;;;;7.40;4.50;;;;;;;5.98;100.00;100205.44;2575315;55;20139;-74
2021/10/27 05:25:32;;;;;;;5.75;4.75;;;;;;;5.97;100.00;100205.56;2575315;55;20122;-70
2021/10/27 05:28:00;;;;;;;8.52;5.40;;;;;;;6.02;100.00;100208.78;2575266;55;20107;-74
2021/10/27 05:30:28;;;;;;;5.35;4.43;;;;;;;6.07;100.00;100209.34;2575559;55;20144;-74
2021/10/27 05:32:57;;;;;;;4.93;3.55;;;;;;;6.05;100.00;100213.87;2569970;55;20139;-73
2021/10/27 05:35:27;;;;;;;7.05;5.12;;;;;;;6.13;100.00;100216.87;2575599;55;20161;-72
2021/10/27 05:37:56;;;;;;;5.55;4.75;;;;;;;6.13;100.00;100216.03;2572818;55;20677;-71
2021/10/27 05:40:24;;;;;;;8.23;4.85;;;;;;;6.08;100.00;100212.81;2572733;55;20127;-71
2021/10/27 05:42:52;;;;;;;7.05;4.62;;;;;;;6.20;100.00;100227.91;2569270;55;20128;-72
2021/10/27 05:45:23;;;;;;;7.43;4.72;;;;;;;6.21;100.00;100211.09;2572861;55;20150;-69
2021/10/27 05:47:54;;;;;;;6.97;4.80;;;;;;;6.23;100.00;100216.28;2572675;55;20132;-69
2021/10/27 05:50:27;;;;;;;6.30;4.68;;;;;;;6.26;100.00;100218.72;2567609;55;20122;-74
2021/10/27 05:55:42;;;;;;;6.85;5.07;;;;;;;6.29;100.00;100217.69;2574895;55;20123;-74
2021/10/27 05:58:12;;;;;;;9.60;4.97;;;;;;;6.33;100.00;100232.44;2575338;55;20135;-75
2021/10/27 06:00:42;;;;;;;10.52;5.75;;;;;;;6.35;100.00;100222.59;2575595;55;20149;-73
2021/10/27 06:03:10;;;;;;;10.43;5.65;;;;;;;6.37;100.00;100232.16;2572429;55;20132;-72
2021/10/27 06:05:38;;;;;;;6.65;5.25;;;;;;;6.39;100.00;100226.72;2572627;55;20106;-71
2021/10/27 06:08:08;;;;;;;7.50;5.80;;;;;;;6.41;100.00;100232.78;2574842;55;20113;-73
2021/10/27 06:10:37;;;;;;;8.23;5.10;;;;;;;6.44;100.00;100242.31;2575412;55;20117;-70
2021/10/27 06:13:06;;;;;;;7.50;5.22;;;;;;;6.50;100.00;100226.87;2574817;55;20114;-72
2021/10/27 06:15:35;;;;;;;7.72;5.53;;;;;;;6.56;100.00;100233.56;2575262;55;20131;-72
2021/10/27 06:18:04;;;;;;;9.43;5.22;;;;;;;6.61;100.00;100241.22;2575746;55;20113;-73
2021/10/27 06:20:32;;;;;;;9.30;5.32;;;;;;;6.62;100.00;100240.28;2572773;55;20519;-73
2021/10/27 06:23:00;;;;;;;13.18;6.68;;;;;;;6.65;100.00;100250.69;2571758;55;20118;-76
2021/10/27 06:25:31;;;;;;;9.38;6.80;;;;;;;6.64;100.00;100241.03;2572165;55;20117;-76
2021/10/27 06:28:04;;;;;;;9.40;6.18;;;;;;;6.67;100.00;100236.38;2571946;55;20636;-76
2021/10/27 06:30:42;;;;;;;8.43;6.18;;;;;;;6.68;100.00;100240.72;2572093;55;20125;-73
2021/10/27 06:33:21;;;;;;;9.50;5.85;;;;;;;6.67;100.00;100246.12;2572253;55;20186;-73
2021/10/27 06:35:56;;;;;;;12.37;6.25;;;;;;;6.73;100.00;100240.41;2573057;55;20127;-76
2021/10/27 06:38:35;;;;;;;11.18;5.82;;;;;;;6.74;100.00;100233.28;2571566;55;20135;-76
2021/10/27 06:46:39;;;;;;;10.43;5.53;;;;;;;6.89;100.00;100247.34;2571932;55;20175;-76
2021/10/27 06:49:07;;;;;;;9.00;6.10;;;;;;;6.92;100.00;100252.44;2571887;55;20124;-76
2021/10/27 06:51:36;;;;;;;10.50;5.78;;;;;;;6.99;100.00;100251.06;2572221;55;20111;-76
2021/10/27 06:54:04;;;;;;;10.77;5.93;;;;;;;6.96;100.00;100245.97;2573593;55;20183;-76
2021/10/27 06:56:35;;;;;;;11.52;5.40;;;;;;;7.05;100.00;100257.75;2573528;55;20116;-72
2021/10/27 06:59:08;;;;;;;8.77;5.93;;;;;;;7.10;100.00;100253.81;2573475;55;20106;-76
2021/10/27 07:02:06;;;;;;;15.32;6.65;;;;;;;7.17;100.00;100264.91;2573463;55;20117;-72
2021/10/27 07:15:32;;;;;;;10.40;5.05;;;;;;;7.23;100.00;100268.94;2573637;55;20102;-76
2021/10/27 07:18:00;;;;;;;9.43;4.70;;;;;;;7.28;100.00;100269.47;2573317;55;20129;-76
2021/10/27 07:20:29;;;;;;;11.27;5.20;;;;;;;7.22;100.00;100262.75;2573426;55;20124;-77
2021/10/27 07:23:00;;;;;;;11.02;4.53;;;;;;;7.29;100.00;100273.81;2573395;55;20511;-73
2021/10/27 07:25:33;;;;;;;8.52;4.57;;;;;;;7.28;100.00;100266.81;2573435;55;20114;-76
2021/10/27 07:28:02;;;;;;;13.15;5.07;;;;;;;7.32;100.00;100272.75;2573529;55;20117;-73
2021/10/27 07:30:31;;;;;;;9.40;4.68;;;;;;;7.33;100.00;100264.69;2573251;55;20105;-77
2021/10/27 07:32:59;;;;;;;10.32;4.70;;;;;;;7.34;100.00;100266.38;2573374;55;20640;-73
2021/10/27 07:35:35;;;;;;;12.18;4.32;;;;;;;7.36;100.00;100268.91;2573461;55;20171;-77
2021/10/27 07:40:48;;;;;;;7.85;4.90;;;;;;;7.46;100.00;100277.13;2573159;55;20136;-73
2021/10/27 07:43:23;;;;;;;18.95;5.70;;;;;;;7.57;100.00;100279.88;2573227;55;20117;-76
2021/10/27 07:45:54;;;;;;;6.43;3.97;;;;;;;7.63;100.00;100289.22;2573176;55;20109;-77
2021/10/27 07:48:23;;;;;;;7.20;4.15;;;;;;;7.65;100.00;100296.12;2573109;55;20140;-73
2021/10/27 07:50:52;;;;;;;11.63;3.53;;;;;;;7.66;100.00;100295.16;2573415;55;20501;-73
2021/10/27 07:53:23;;;;;;;6.57;3.00;;;;;;;7.74;100.00;100304.41;2573377;55;20120;-76
2021/10/27 07:55:52;;;;;;;6.87;3.22;;;;;;;7.77;100.00;100307.69;2573225;55;20113;-73
2021/10/27 07:58:22;;;;;;;7.15;3.78;;;;;;;7.76;100.00;100294.50;2573249;55;20627;-75
2021/10/27 08:00:51;;;;;;;6.90;3.42;;;;;;;7.82;100.00;100303.84;2573595;55;20110;-76
2021/10/27 08:03:19;;;;;;;11.50;3.15;;;;;;;7.77;100.00;100299.72;2573191;55;20125;-72
2021/10/27 08:05:48;;;;;;;10.82;3.25;;;;;;;7.78;100.00;100301.44;2573299;55;20113;-73
2021/10/27 08:08:21;;;;;;;7.32;3.05;;;;;;;7.81;100.00;100303.00;2573092;55;20135;-76
2021/10/27 08:10:50;;;;;;;9.23;3.47;;;;;;;7.85;100.00;100311.59;2573368;55;20117;-77
2021/10/27 08:13:19;;;;;;;6.70;4.25;;;;;;;7.88;100.00;100308.75;2573140;55;20120;-76
2021/10/27 08:15:48;;;;;;;5.50;3.28;;;;;;;7.90;100.00;100314.81;2573203;55;20149;-73
2021/10/27 08:18:17;;;;;;;8.35;2.95;;;;;;;7.88;100.00;100320.22;2572930;55;20121;-73
2021/10/27 08:20:47;;;;;;;8.55;4.03;;;;;;;7.88;100.00;100317.56;2573299;55;20173;-76
2021/10/27 08:23:19;;;;;;;9.77;4.47;;;;;;;7.94;100.00;100326.91;2573459;55;20117;-72
2021/10/27 08:25:49;;;;;;;7.87;3.30;;;;;;;7.93;100.00;100325.19;2568016;55;20600;-77
2021/10/27 08:28:22;;;;;;;7.17;3.77;;;;;;;8.15;100.00;100319.22;2573172;55;20500;-73
2021/10/27 08:30:56;;;;;;;7.82;3.55;;;;;;;8.42;100.00;100309.38;2573492;55;20252;-73
2021/10/27 08:33:36;;;;;;;8.02;4.03;;;;;;;8.80;100.00;100319.03;2573228;55;20769;-73
2021/10/27 08:36:04;;;;;;;6.12;3.20;;;;;;;9.05;100.00;100315.37;2572992;55;20545;-77
2021/10/27 08:38:32;;;;;;;6.25;3.10;;;;;;;9.18;100.00;100315.31;2573192;55;20109;-77
2021/10/27 08:41:01;;;;;;;7.30;3.35;;;;;;;9.18;100.00;100314.47;2573065;55;20114;-73
2021/10/27 08:43:30;;;;;;;8.50;3.25;;;;;;;9.11;100.00;100299.91;2573073;55;20612;-77
2021/10/27 08:46:01;;;;;;;14.43;4.62;;;;;;;8.99;100.00;100313.19;2573012;55;20118;-77
2021/10/27 08:48:30;;;;;;;5.15;3.03;;;;;;;8.91;100.00;100312.91;2572999;55;20114;-73
2021/10/27 08:51:01;;;;;;;9.52;3.10;;;;;;;8.87;100.00;100314.97;2573212;55;20125;-77
2021/10/27 08:53:29;;;;;;;7.03;3.40;;;;;;;8.83;100.00;100317.97;2573890;55;20105;-77
2021/10/27 08:56:01;;;;;;;7.65;2.83;;;;;;;8.76;100.00;100317.53;2574036;55;20135;-73
2021/10/27 08:58:35;;;;;;;4.60;2.42;;;;;;;8.66;100.00;100327.16;2573834;55;20121;-76
2021/10/27 09:01:09;;;;;;;7.60;2.97;;;;;;;8.65;100.00;100342.28;2573891;55;20112;-73
2021/10/27 09:04:14;;;;;;;8.15;3.37;;;;;;;8.69;100.00;100338.44;2573967;55;20117;-73
2021/10/27 09:06:47;;;;;;;5.97;2.58;;;;;;;8.60;100.00;100337.31;2574056;55;20110;-73
2021/10/27 10:04:12;;;;;;;5.93;2.03;;;;;;;8.36;100.00;100396.56;2573323;55;20125;-73
2021/10/27 10:06:41;;;;;;;4.87;1.90;;;;;;;8.20;100.00;100398.62;2573923;55;20117;-73
2021/10/27 10:09:13;;;;;;;4.57;2.40;;;;;;;8.11;100.00;100401.91;2573551;55;20136;-76
2021/10/27 10:11:41;;;;;;;6.07;3.00;;;;;;;8.08;100.00;100405.63;2573755;55;20109;-73
2021/10/27 10:14:11;;;;;;;4.75;2.60;;;;;;;8.01;100.00;100401.69;2568605;55;20520;-77
2021/10/27 10:16:44;;;;;;;9.32;2.53;;;;;;;8.00;100.00;100405.31;2573634;55;20109;-73
2021/10/27 10:19:14;;;;;;;6.25;2.67;;;;;;;8.07;100.00;100403.94;2573597;55;20140;-76
2021/10/27 10:21:45;;;;;;;11.38;3.95;;;;;;;8.07;100.00;100403.94;2568566;55;20634;-77
2021/10/27 10:24:39;;;;;;;9.05;3.60;;;;;;;8.11;100.00;100405.41;2573641;55;20130;-74
2021/10/27 10:27:13;;;;;;;8.38;3.20;;;;;;;8.02;100.00;100404.25;2573661;55;20125;-73
2021/10/27 10:29:52;;;;;;;8.48;3.03;;;;;;;7.94;100.00;100407.47;2568556;55;20121;-74
2021/10/27 10:32:41;;;;;;;12.82;3.90;;;;;;;7.99;100.00;100409.78;2573532;55;20114;-73
2021/10/27 10:35:25;;;;;;;9.02;3.35;;;;;;;7.96;100.00;100409.97;2568554;55;20619;-73
2021/10/27 10:38:07;;;;;;;9.55;3.70;;;;;;;7.90;100.00;100418.41;2573692;55;20613;-73
2021/10/27 11:03:04;;;;;;;6.03;3.50;;;;;;;7.68;100.00;100432.28;2573776;55;20120;-74
2021/10/27 11:26:48;;;;;;;8.70;3.08;;;;;;;8.32;100.00;100436.78;2571937;55;20110;-76
2021/10/27 11:37:45;;;;;;;7.62;3.83;;;;;;;8.34;100.00;100433.03;2568193;55;20131;-73
2021/10/27 11:40:29;;;;;;;9.07;3.12;;;;;;;8.29;100.00;100436.97;2573426;55;20115;-77
2021/10/27 11:43:00;;;;;;;4.68;2.78;;;;;;;8.21;100.00;100441.03;2568181;55;20117;-76
2021/10/27 11:45:39;;;;;;;8.38;3.78;;;;;;;8.21;100.00;100446.34;2573307;55;20127;-77
2021/10/27 11:48:17;;;;;;;5.15;2.65;;;;;;;8.18;100.00;100441.25;2573251;55;20136;-76
2021/10/27 11:50:46;;;;;;;10.23;3.53;;;;;;;8.17;100.00;100441.38;2573243;55;20105;-77
2021/10/27 11:53:26;;;;;;;6.80;3.00;;;;;;;8.12;100.00;100438.16;2573169;55;20139;-77
2021/10/27 11:55:55;;;;;;;8.88;2.53;;;;;;;8.05;100.00;100429.78;2573354;55;20117;-77
2021/10/27 11:58:36;;;;;;;4.85;2.78;;;;;;;8.12;100.00;100431.06;2573198;55;20125;-77
2021/10/27 12:01:06;;;;;;;10.82;2.62;;;;;;;8.02;100.00;100432.66;2573306;55;20117;-73
2021/10/27 12:03:39;;;;;;;9.02;3.20;;;;;;;8.01;100.00;100433.59;2573072;55;20124;-73
2021/10/27 12:06:11;;;;;;;7.90;2.87;;;;;;;7.96;100.00;100435.72;2573420;55;20639;-76
2021/10/27 12:11:50;;;;;;;7.70;2.58;;;;;;;7.92;100.00;100435.94;2566895;55;20105;-73
2021/10/27 12:14:22;;;;;;;7.62;2.62;;;;;;;7.92;100.00;100435.94;2573248;55;20505;-77
2021/10/27 12:17:12;;;;;;;6.82;3.00;;;;;;;7.89;100.00;100429.97;2573304;55;20519;-73
2021/10/27 12:19:41;;;;;;;7.87;2.53;;;;;;;7.88;100.00;100434.44;2573174;55;20112;-76
2021/10/27 12:22:10;;;;;;;5.55;2.83;;;;;;;7.86;100.00;100423.06;2573131;55;20119;-76
2021/10/27 12:24:40;;;;;;;10.73;2.65;;;;;;;7.88;100.00;100438.91;2573187;55;20676;-73
2021/10/27 12:27:21;;;;;;;9.15;2.95;;;;;;;7.89;100.00;100441.44;2573224;55;20125;-72
2021/10/27 12:29:53;;;;;;;6.82;3.78;;;;;;;7.83;100.00;100441.88;2573192;55;20571;-76
2021/10/27 12:32:22;;;;;;;8.23;2.67;;;;;;;7.77;100.00;100447.59;2573204;55;20638;-77
2021/10/27 12:34:53;;;;;;;10.13;3.25;;;;;;;7.72;100.00;100444.41;2573184;55;20109;-77
2021/10/27 12:37:29;;;;;;;6.72;2.95;;;;;;;7.68;100.00;100442.91;2573063;55;20512;-77
2021/10/27 12:40:19;;;;;;;6.82;2.70;;;;;;;7.69;100.00;100444.59;2573000;55;20171;-73
2021/10/27 12:42:57;;;;;;;6.05;2.80;;;;;;;7.65;100.00;100444.81;2568354;55;20113;-73
2021/10/27 12:45:33;;;;;;;5.35;2.97;;;;;;;7.63;100.00;100440.56;2573140;55;20172;-76
2021/10/27 12:48:05;;;;;;;7.15;2.85;;;;;;;7.66;100.00;100435.91;2573017;55;20647;-73
2021/10/27 12:50:36;;;;;;;6.97;3.12;;;;;;;7.59;100.00;100429.28;2573054;55;20631;-72
2021/10/27 12:53:07;;;;;;;9.32;3.70;;;;;;;7.60;100.00;100436.28;2572972;55;20632;-72
2021/10/27 12:55:38;;;;;;;9.80;3.30;;;;;;;7.56;100.00;100440.13;2572885;55;20560;-73
2021/10/27 12:58:10;;;;;;;6.22;3.58;;;;;;;7.52;100.00;100425.38;2572886;55;20117;-73
2021/10/27 13:00:53;;;;;;;6.93;3.08;;;;;;;7.60;100.00;100423.03;2573252;55;20153;-76
2021/10/27 13:03:41;;;;;;;9.77;3.67;;;;;;;7.54;100.00;100430.56;2568041;55;20109;-76
2021/10/27 13:06:21;;;;;;;6.90;3.30;;;;;;;7.53;100.00;100424.41;2573168;55;20110;-72
2021/10/27 13:08:59;;;;;;;17.12;4.93;;;;;;;7.52;100.00;100423.53;2573097;55;20198;-72
2021/10/27 13:11:43;;;;;;;10.65;4.18;;;;;;;7.42;100.00;100403.03;2567795;55;20117;-76
2021/10/27 13:14:22;;;;;;;8.95;3.40;;;;;;;7.51;100.00;100424.50;2573140;55;20208;-73
2021/10/27 13:19:55;;;;;;;6.35;2.95;;;;;;;7.47;100.00;100416.84;2565257;55;20128;-76
2021/10/27 13:22:32;;;;;;;7.70;3.20;;;;;;;7.50;100.00;100422.81;2572903;55;20116;-75
2021/10/27 13:30:34;;;;;;;9.98;2.83;;;;;;;7.48;100.00;100410.56;2572926;55;20122;-77
2021/10/27 13:33:06;;;;;;;6.45;2.50;;;;;;;7.45;100.00;100414.28;2572898;55;20116;-76
2021/10/27 13:35:35;;;;;;;;;;;;;;;7.61;100.00;100411.44;2573419;55;20132;-77
2021/10/27 13:38:06;;;;;;;7.18;3.37;;;;;;;7.46;100.00;100415.97;2572831;55;19993;-72
2021/10/27 13:40:36;;;;;;;8.10;2.62;;;;;;;7.41;100.00;100412.78;2573812;55;20161;-72
2021/10/27 13:43:09;;;;;;;5.97;3.00;;;;;;;7.40;100.00;100419.06;2573668;55;20578;-75
2021/10/27 13:45:47;;;;;;;7.30;3.12;;;;;;;7.38;100.00;100421.81;2573888;55;20124;-76
2021/10/27 13:48:19;;;;;;;7.25;2.95;;;;;;;7.39;100.00;100412.06;2573656;55;20120;-73
2021/10/27 14:05:57;;;;;;;9.07;3.55;;;;;;;7.30;100.00;100416.16;2573691;55;20114;-76
2021/10/27 14:07:42;;;;;;;10.77;3.00;;;;;;;7.32;100.00;100416.94;2573702;55;20552;-73
2021/10/27 14:10:14;;;;;;;6.68;2.37;;;;;;;7.25;100.00;100399.69;2573350;55;20135;-73